• Join FlightAware (Why Join?)
  • Login
  • US Flag 
12:43AM EDT


 

Airport Tracker/Info


-or-


 

Live Flight TrackerFlight Track Log ✈ UAL4274 ✈ 19-Apr-2013 ✈ KRIC - KCLE

Flight Track Log - Related Links

Times and Time Zones

All times are in EDT time to prevent confusion due to time zone crossing. See the UAL4274 flight status page for this flight to view local times or setup timezone preferences in your user account.

Time Position Orientation Groundspeed Altitude Reporting Facility
EDT Latitude Longitude Course Direction KTS MPH feet Rate Location/Type
06:39AM 37.4667 -77.3500 307° West 176 203 2,500  Level Potomac TRACON
06:39AM 37.4833 -77.4167 288° West 238 274 5,200 2,940 Climbing Potomac TRACON
06:40AM 37.4878 -77.4161 North 248 285 5,600 2,280 Climbing Washington Center
06:41AM 37.5389 -77.4828 314° West 264 304 8,100 2,580 Climbing Washington Center
06:42AM 37.5900 -77.5547 312° West 269 310 10,800 2,580 Climbing Washington Center
06:43AM 37.6428 -77.6297 312° West 280 322 13,300 2,160 Climbing Washington Center
06:44AM 37.7693 -77.7488 307° West  Level FlightAware Approximate
06:44AM 37.7000 -77.7047 314° West 291 335 15,200  Level Washington Center
06:45AM 37.7547 -77.7928 308° West 306 352 16,800 1,800 Climbing Washington Center
06:46AM 37.8219 -77.8736 316° Northwest 318 366 18,800 1,560 Climbing Washington Center
06:47AM 37.8850 -77.9678 310° West 331 381 20,000 1,320 Climbing Washington Center
06:48AM 37.9494 -78.0697 309° West 355 409 21,500 1,320 Climbing Washington Center
06:49AM 38.0478 -78.1600 324° Northwest 389 448 22,700 1,260 Climbing Washington Center
06:50AM 38.1686 -78.1669 357° North 390 449 24,100 1,260 Climbing Washington Center
06:51AM 38.2853 -78.1761 356° North 400 460 25,300 1,080 Climbing Washington Center
06:52AM 38.4061 -78.1803 358° North 413 475 26,300 840 Climbing Washington Center
06:53AM 38.5247 -78.1872 357° North 420 483 27,000 300 Climbing Washington Center
06:54AM 38.6539 -78.1969 357° North 437 503 27,000  Level Washington Center
06:55AM 38.7850 -78.2042 358° North 454 522 27,000  Level Washington Center
06:56AM 38.9181 -78.2142 357° North 467 537 27,000  Level Washington Center
06:57AM 39.0533 -78.2272 356° North 478 550 27,000  Level Washington Center
06:58AM 39.1867 -78.2400 356° North 478 550 27,000  Level Washington Center
06:59AM 39.3239 -78.2531 356° North 478 550 27,000  Level Washington Center
07:00AM 39.4569 -78.2633 358° North 478 550 27,000  Level Washington Center
07:01AM 39.5220 -78.2642 358° North  Level FlightAware Approximate
07:01AM 39.6675 -78.3258 347° North 491 565 27,000  Level Cleveland Center
07:02AM 39.7664 -78.3711 341° North 478 550 27,000  Level Cleveland Center
07:03AM 39.8844 -78.4483 333° Northwest 463 533 27,000  Level Cleveland Center
07:04AM 39.9639 -78.5733 310° West 435 501 27,000  Level Cleveland Center
07:05AM 40.0392 -78.6958 309° West 429 494 27,000  Level Cleveland Center
07:06AM 40.1139 -78.8158 309° West 434 499 27,000  Level Cleveland Center
07:07AM 40.1886 -78.9361 309° West 434 499 27,000  Level Cleveland Center
07:08AM 40.2656 -79.0594 309° West 439 505 27,000  Level Cleveland Center
07:09AM 40.3381 -79.1831 308° West 434 499 27,000  Level Cleveland Center
07:10AM 40.4144 -79.3069 309° West 434 499 27,000  Level Cleveland Center
07:11AM 40.4950 -79.4308 311° West 439 505 27,000  Level Cleveland Center
07:12AM 40.5714 -79.5608 308° West 445 512 27,000  Level Cleveland Center
07:13AM 40.6494 -79.6856 310° West 445 512 27,000  Level Cleveland Center
07:14AM 40.7339 -79.8294 308° West 445 512 27,000  Level Cleveland Center
07:15AM 40.8097 -79.9578 308° West 445 512 27,000  Level Cleveland Center
07:16AM 40.8894 -80.0886 309° West 450 518 27,000 -60 Level Cleveland Center
07:17AM 40.9692 -80.2200 309° West 455 524 26,900 -1,140 Descending Cleveland Center
07:18AM 41.0447 -80.3519 307° West 455 524 24,800 -1,500 Descending Cleveland Center
07:19AM 41.1136 -80.4675 308° West 438 504 24,000 -480 Descending Cleveland Center
07:20AM 41.1719 -80.5719 307° West 407 468 23,900  Descending Cleveland Center
07:21AM 41.2469 -80.6964 309° West 402 463 24,000 -2,760 Climbing Cleveland Center
07:22AM 41.3114 -80.8097 307° West 392 451 18,400 -4,440 Descending Cleveland Center
07:23AM 41.3736 -80.9178 308° West 384 442 15,100 -3,180 Descending Cleveland Center
07:24AM 41.4339 -81.0236 307° West 375 432 12,100 -2,520 Descending Cleveland Center
07:25AM 41.4981 -81.1208 311° West 365 420 10,200 -1,080 Descending Cleveland Center
07:26AM 41.5603 -81.2019 316° Northwest 328 377 10,000 -120 Descending Cleveland Center
07:27AM 41.5994 -81.2744 306° West 237 273 10,000 -660 Level Cleveland Center
07:28AM 41.6133 -81.3553 283° West 225 259 8,700 -1,020 Descending Cleveland Center
07:29AM 41.6044 -81.4328 261° West 212 244 7,900 -900 Descending Cleveland Center
07:30AM 41.5978 -81.4967 262° West 195 224 6,900 -1,200 Descending Cleveland Center
07:31AM 41.5994 -81.5606 272° West 176 203 5,600 -900 Descending Cleveland Center
07:32AM 41.5678 -81.6044 226° Southwest 160 184 5,100 -480 Descending Cleveland Center
07:33AM 41.5422 -81.6456 230° Southwest 121 139 4,700 -600 Descending Cleveland Center
07:34AM 41.5231 -81.6814 234° Southwest 141 162 4,000 -780 Descending Cleveland Center
07:35AM 41.4978 -81.7197 229° Southwest 129 148 3,300 -720 Descending Cleveland Center